sensor_id;sensor_type;location;lat;lon;timestamp;pressure;altitude;pressure_sealevel;temperature;humidity
53940;BME280;39850;43.324;21.916;2023-11-22T00:52:28;985.0;;;9.8;96.0
53940;BME280;39850;43.324;21.916;2023-11-22T00:57:05;985.0;;;9.8;96.0
53940;BME280;39850;43.324;21.916;2023-11-22T01:01:41;984.0;;;9.9;96.0
53940;BME280;39850;43.324;21.916;2023-11-22T01:06:17;984.0;;;9.9;96.0
53940;BME280;39850;43.324;21.916;2023-11-22T01:10:53;984.0;;;9.9;96.0
53940;BME280;39850;43.324;21.916;2023-11-22T01:15:30;984.0;;;9.9;96.0
53940;BME280;39850;43.324;21.916;2023-11-22T01:20:10;984.0;;;9.9;95.0
53940;BME280;39850;43.324;21.916;2023-11-22T01:24:46;984.0;;;9.9;95.0
53940;BME280;39850;43.324;21.916;2023-11-22T02:11:04;984.0;;;9.8;97.0
53940;BME280;39850;43.324;21.916;2023-11-22T02:15:41;984.0;;;9.8;97.0
53940;BME280;39850;43.324;21.916;2023-11-22T02:20:17;984.0;;;9.8;97.0
53940;BME280;39850;43.324;21.916;2023-11-22T02:24:54;984.0;;;9.8;97.0
53940;BME280;39850;43.324;21.916;2023-11-22T02:29:30;984.0;;;9.8;97.0
53940;BME280;39850;43.324;21.916;2023-11-22T02:34:07;984.0;;;9.8;97.0
53940;BME280;39850;43.324;21.916;2023-11-22T02:38:43;984.0;;;9.8;97.0
53940;BME280;39850;43.324;21.916;2023-11-22T03:33:59;985.0;;;8.0;100.0
53940;BME280;39850;43.324;21.916;2023-11-22T03:38:36;985.0;;;8.0;100.0
53940;BME280;39850;43.324;21.916;2023-11-22T03:43:12;985.0;;;8.2;100.0
53940;BME280;39850;43.324;21.916;2023-11-22T03:47:48;985.0;;;8.2;100.0
53940;BME280;39850;43.324;21.916;2023-11-22T03:52:25;985.0;;;8.4;100.0
53940;BME280;39850;43.324;21.916;2023-11-22T03:57:03;985.0;;;8.4;100.0
53940;BME280;39850;43.324;21.916;2023-11-22T04:01:39;985.0;;;8.7;99.0
53940;BME280;39850;43.324;21.916;2023-11-22T04:06:17;985.0;;;8.7;99.0
53940;BME280;39850;43.324;21.916;2023-11-22T04:10:54;985.0;;;9.0;98.0
53940;BME280;39850;43.324;21.916;2023-11-22T04:15:30;985.0;;;9.0;98.0
53940;BME280;39850;43.324;21.916;2023-11-22T04:52:26;986.0;;;10.0;96.0
53940;BME280;39850;43.324;21.916;2023-11-22T04:57:04;986.0;;;10.0;96.0
53940;BME280;39850;43.324;21.916;2023-11-22T05:01:40;986.0;;;10.0;95.0
53940;BME280;39850;43.324;21.916;2023-11-22T05:06:17;986.0;;;10.0;95.0
53940;BME280;39850;43.324;21.916;2023-11-22T05:10:53;986.0;;;10.0;95.0
53940;BME280;39850;43.324;21.916;2023-11-22T05:15:29;986.0;;;10.0;95.0
53940;BME280;39850;43.324;21.916;2023-11-22T05:20:09;986.0;;;10.0;95.0
53940;BME280;39850;43.324;21.916;2023-11-22T05:24:46;986.0;;;10.0;95.0
53940;BME280;39850;43.324;21.916;2023-11-22T05:29:22;986.0;;;10.0;95.0
53940;BME280;39850;43.324;21.916;2023-11-22T06:10:49;986.0;;;10.0;95.0
53940;BME280;39850;43.324;21.916;2023-11-22T06:15:25;986.0;;;10.0;95.0
53940;BME280;39850;43.324;21.916;2023-11-22T06:20:02;986.0;;;10.0;95.0
53940;BME280;39850;43.324;21.916;2023-11-22T06:24:38;986.0;;;10.0;95.0
53940;BME280;39850;43.324;21.916;2023-11-22T06:29:14;986.0;;;10.0;95.0
53940;BME280;39850;43.324;21.916;2023-11-22T06:33:50;986.0;;;10.0;95.0
53940;BME280;39850;43.324;21.916;2023-11-22T06:38:27;986.0;;;10.0;95.0
53940;BME280;39850;43.324;21.916;2023-11-22T06:43:03;987.0;;;10.0;95.0
53940;BME280;39850;43.324;21.916;2023-11-22T06:47:40;987.0;;;10.0;95.0
53940;BME280;39850;43.324;21.916;2023-11-22T07:33:46;987.0;;;10.0;94.0
53940;BME280;39850;43.324;21.916;2023-11-22T07:38:22;987.0;;;10.0;94.0
53940;BME280;39850;43.324;21.916;2023-11-22T07:42:59;987.0;;;10.0;94.0
53940;BME280;39850;43.324;21.916;2023-11-22T07:47:35;987.0;;;10.0;94.0
53940;BME280;39850;43.324;21.916;2023-11-22T07:52:12;987.0;;;10.0;94.0
53940;BME280;39850;43.324;21.916;2023-11-22T07:56:48;987.0;;;10.0;94.0
53940;BME280;39850;43.324;21.916;2023-11-22T08:01:25;987.0;;;10.0;94.0
53940;BME280;39850;43.324;21.916;2023-11-22T08:06:02;987.0;;;10.0;94.0
53940;BME280;39850;43.324;21.916;2023-11-22T08:52:06;988.0;;;11.6;93.0
53940;BME280;39850;43.324;21.916;2023-11-22T08:56:42;988.0;;;11.6;93.0
53940;BME280;39850;43.324;21.916;2023-11-22T09:01:19;988.0;;;12.0;89.0
53940;BME280;39850;43.324;21.916;2023-11-22T09:05:55;988.0;;;12.0;89.0
53940;BME280;39850;43.324;21.916;2023-11-22T09:10:32;988.0;;;12.0;89.0
53940;BME280;39850;43.324;21.916;2023-11-22T09:15:13;988.0;;;11.6;87.0
53940;BME280;39850;43.324;21.916;2023-11-22T09:19:50;988.0;;;11.6;87.0
53940;BME280;39850;43.324;21.916;2023-11-22T09:24:26;988.0;;;11.9;86.0
53940;BME280;39850;43.324;21.916;2023-11-22T09:29:03;988.0;;;11.9;86.0
53940;BME280;39850;43.324;21.916;2023-11-22T09:33:39;988.0;;;11.3;87.0
53940;BME280;39850;43.324;21.916;2023-11-22T09:38:16;988.0;;;11.3;87.0
53940;BME280;39850;43.324;21.916;2023-11-22T10:11:02;988.0;;;9.8;93.0
53940;BME280;39850;43.324;21.916;2023-11-22T10:15:39;988.0;;;9.8;93.0
53940;BME280;39850;43.324;21.916;2023-11-22T10:20:16;988.0;;;9.8;93.0
53940;BME280;39850;43.324;21.916;2023-11-22T10:24:52;988.0;;;9.8;92.0
53940;BME280;39850;43.324;21.916;2023-11-22T10:29:29;988.0;;;9.8;92.0
53940;BME280;39850;43.324;21.916;2023-11-22T10:34:09;988.0;;;9.8;92.0
53940;BME280;39850;43.324;21.916;2023-11-22T10:38:49;988.0;;;9.8;92.0
53940;BME280;39850;43.324;21.916;2023-11-22T10:43:31;988.0;;;9.8;92.0
53940;BME280;39850;43.324;21.916;2023-11-22T10:48:08;988.0;;;9.8;92.0
53940;BME280;39850;43.324;21.916;2023-11-22T11:35:44;988.0;;;9.8;93.0
53940;BME280;39850;43.324;21.916;2023-11-22T11:40:33;988.0;;;9.8;93.0
53940;BME280;39850;43.324;21.916;2023-11-22T11:45:11;988.0;;;9.8;93.0
53940;BME280;39850;43.324;21.916;2023-11-22T11:49:49;988.0;;;9.8;93.0
53940;BME280;39850;43.324;21.916;2023-11-22T11:54:26;988.0;;;9.8;93.0
53940;BME280;39850;43.324;21.916;2023-11-22T11:59:03;988.0;;;9.8;93.0
53940;BME280;39850;43.324;21.916;2023-11-22T12:03:40;988.0;;;9.8;92.0
53940;BME280;39850;43.324;21.916;2023-11-22T12:08:17;988.0;;;9.8;92.0
53940;BME280;39850;43.324;21.916;2023-11-22T12:55:08;989.0;;;9.0;96.0
53940;BME280;39850;43.324;21.916;2023-11-22T12:59:44;989.0;;;9.0;96.0
53940;BME280;39850;43.324;21.916;2023-11-22T13:04:21;989.0;;;9.0;96.0
53940;BME280;39850;43.324;21.916;2023-11-22T13:08:57;989.0;;;9.0;96.0
53940;BME280;39850;43.324;21.916;2023-11-22T13:13:33;989.0;;;9.0;96.0
53940;BME280;39850;43.324;21.916;2023-11-22T13:18:10;989.0;;;9.0;96.0
53940;BME280;39850;43.324;21.916;2023-11-22T14:13:24;990.0;;;9.5;98.0
53940;BME280;39850;43.324;21.916;2023-11-22T14:18:00;990.0;;;9.5;98.0
53940;BME280;39850;43.324;21.916;2023-11-22T14:22:40;990.0;;;9.5;98.0
53940;BME280;39850;43.324;21.916;2023-11-22T14:27:16;990.0;;;9.5;98.0
53940;BME280;39850;43.324;21.916;2023-11-22T14:31:53;990.0;;;9.5;98.0
53940;BME280;39850;43.324;21.916;2023-11-22T14:36:29;990.0;;;9.5;98.0
53940;BME280;39850;43.324;21.916;2023-11-22T14:41:10;990.0;;;9.5;98.0
53940;BME280;39850;43.324;21.916;2023-11-22T15:45:39;992.0;;;9.1;100.0
53940;BME280;39850;43.324;21.916;2023-11-22T15:50:16;992.0;;;9.1;100.0
53940;BME280;39850;43.324;21.916;2023-11-22T15:54:52;992.0;;;9.1;100.0
53940;BME280;39850;43.324;21.916;2023-11-22T15:59:29;992.0;;;9.1;100.0
53940;BME280;39850;43.324;21.916;2023-11-22T16:04:05;992.0;;;9.1;100.0
53940;BME280;39850;43.324;21.916;2023-11-22T16:08:42;992.0;;;9.1;100.0
53940;BME280;39850;43.324;21.916;2023-11-22T17:13:11;993.0;;;8.8;100.0
53940;BME280;39850;43.324;21.916;2023-11-22T17:17:47;993.0;;;8.8;100.0
53940;BME280;39850;43.324;21.916;2023-11-22T17:22:24;993.0;;;8.8;100.0
53940;BME280;39850;43.324;21.916;2023-11-22T17:27:00;993.0;;;8.8;100.0
53940;BME280;39850;43.324;21.916;2023-11-22T17:31:37;993.0;;;8.8;100.0
53940;BME280;39850;43.324;21.916;2023-11-22T17:36:13;993.0;;;8.8;100.0
53940;BME280;39850;43.324;21.916;2023-11-22T17:40:49;993.0;;;8.8;100.0
53940;BME280;39850;43.324;21.916;2023-11-22T18:13:06;994.0;;;9.1;100.0
53940;BME280;39850;43.324;21.916;2023-11-22T18:17:43;994.0;;;9.1;100.0
53940;BME280;39850;43.324;21.916;2023-11-22T18:22:19;994.0;;;9.1;100.0
53940;BME280;39850;43.324;21.916;2023-11-22T18:26:56;994.0;;;9.1;100.0
53940;BME280;39850;43.324;21.916;2023-11-22T18:31:32;994.0;;;9.1;100.0
53940;BME280;39850;43.324;21.916;2023-11-22T18:36:09;994.0;;;9.1;100.0
53940;BME280;39850;43.324;21.916;2023-11-22T18:40:45;994.0;;;9.1;100.0
53940;BME280;39850;43.324;21.916;2023-11-22T18:45:22;994.0;;;9.1;100.0
53940;BME280;39850;43.324;21.916;2023-11-22T18:49:58;994.0;;;9.1;100.0
53940;BME280;39850;43.324;21.916;2023-11-22T18:54:35;994.0;;;9.1;100.0
53940;BME280;39850;43.324;21.916;2023-11-22T18:59:11;994.0;;;9.1;100.0
53940;BME280;39850;43.324;21.916;2023-11-22T19:36:00;995.0;;;9.1;100.0
53940;BME280;39850;43.324;21.916;2023-11-22T19:40:37;995.0;;;9.1;100.0
53940;BME280;39850;43.324;21.916;2023-11-22T19:45:14;995.0;;;9.1;100.0
53940;BME280;39850;43.324;21.916;2023-11-22T19:49:50;995.0;;;9.1;100.0
53940;BME280;39850;43.324;21.916;2023-11-22T19:54:26;995.0;;;9.1;100.0
53940;BME280;39850;43.324;21.916;2023-11-22T19:59:03;995.0;;;9.1;100.0
53940;BME280;39850;43.324;21.916;2023-11-22T20:03:39;995.0;;;9.1;100.0
53940;BME280;39850;43.324;21.916;2023-11-22T20:08:15;995.0;;;9.1;100.0
53940;BME280;39850;43.324;21.916;2023-11-22T20:12:53;995.0;;;9.1;100.0
53940;BME280;39850;43.324;21.916;2023-11-22T20:17:29;995.0;;;9.1;100.0
53940;BME280;39850;43.324;21.916;2023-11-22T20:22:07;995.0;;;9.1;100.0
53940;BME280;39850;43.324;21.916;2023-11-22T20:54:24;996.0;;;8.6;100.0
53940;BME280;39850;43.324;21.916;2023-11-22T20:59:01;996.0;;;8.6;100.0
53940;BME280;39850;43.324;21.916;2023-11-22T21:03:38;996.0;;;8.3;100.0
53940;BME280;39850;43.324;21.916;2023-11-22T21:08:14;996.0;;;8.3;100.0
53940;BME280;39850;43.324;21.916;2023-11-22T21:12:50;996.0;;;8.3;100.0
53940;BME280;39850;43.324;21.916;2023-11-22T21:17:27;996.0;;;8.3;100.0
53940;BME280;39850;43.324;21.916;2023-11-22T21:22:03;996.0;;;8.3;100.0
53940;BME280;39850;43.324;21.916;2023-11-22T21:26:40;996.0;;;8.0;100.0
53940;BME280;39850;43.324;21.916;2023-11-22T21:31:16;996.0;;;8.0;100.0
53940;BME280;39850;43.324;21.916;2023-11-22T22:17:21;996.0;;;8.0;100.0
53940;BME280;39850;43.324;21.916;2023-11-22T22:21:57;996.0;;;8.0;100.0
53940;BME280;39850;43.324;21.916;2023-11-22T22:26:34;996.0;;;8.0;100.0
53940;BME280;39850;43.324;21.916;2023-11-22T22:31:10;996.0;;;8.0;100.0
53940;BME280;39850;43.324;21.916;2023-11-22T22:35:47;996.0;;;8.0;100.0
53940;BME280;39850;43.324;21.916;2023-11-22T22:40:23;996.0;;;8.0;100.0
53940;BME280;39850;43.324;21.916;2023-11-22T22:44:59;996.0;;;8.0;100.0
53940;BME280;39850;43.324;21.916;2023-11-22T22:49:36;996.0;;;8.0;100.0
53940;BME280;39850;43.324;21.916;2023-11-22T22:54:12;996.0;;;8.0;100.0
53940;BME280;39850;43.324;21.916;2023-11-22T22:58:49;996.0;;;8.0;100.0
53940;BME280;39850;43.324;21.916;2023-11-22T23:35:42;996.0;;;8.0;100.0
53940;BME280;39850;43.324;21.916;2023-11-22T23:40:18;996.0;;;8.0;100.0
53940;BME280;39850;43.324;21.916;2023-11-22T23:44:55;996.0;;;8.0;100.0
53940;BME280;39850;43.324;21.916;2023-11-22T23:49:31;996.0;;;8.0;100.0
53940;BME280;39850;43.324;21.916;2023-11-22T23:54:08;996.0;;;8.0;100.0
53940;BME280;39850;43.324;21.916;2023-11-22T23:58:44;996.0;;;8.0;100.0
